createdAt,value
2024-05-09T00:04:58.750Z,90.73
2024-05-09T00:19:58.588Z,90.98
2024-05-09T00:34:58.340Z,90.73
2024-05-09T00:49:58.329Z,90.78
2024-05-09T01:04:57.996Z,90.86
2024-05-09T01:19:57.730Z,90.97
2024-05-09T01:34:57.604Z,90.80
2024-05-09T01:49:57.377Z,90.75
2024-05-09T02:04:57.235Z,90.78
2024-05-09T02:19:57.170Z,90.88
2024-05-09T02:34:56.804Z,90.67
2024-05-09T02:49:56.577Z,90.76
2024-05-09T03:04:56.534Z,90.76
2024-05-09T03:19:56.202Z,90.85
2024-05-09T03:34:56.236Z,90.70
2024-05-09T03:49:55.832Z,90.67
2024-05-09T04:04:55.720Z,90.62
2024-05-09T04:19:55.555Z,90.57
2024-05-09T04:34:55.306Z,90.52
2024-05-09T04:49:55.051Z,90.44
2024-05-09T05:04:55.180Z,90.26
2024-05-09T05:19:54.919Z,90.31
2024-05-09T05:34:54.508Z,89.66
2024-05-09T05:49:54.353Z,88.76
2024-05-09T06:04:54.202Z,88.81
2024-05-09T06:19:54.133Z,89.03
2024-05-09T06:34:53.945Z,87.16
2024-05-09T06:49:53.627Z,88.66
2024-05-09T07:04:53.542Z,88.28
2024-05-09T07:19:53.221Z,86.97
2024-05-09T07:34:52.966Z,85.65
2024-05-09T07:51:32.845Z,82.68
2024-05-09T08:04:53.730Z,83.31
2024-05-09T08:19:52.492Z,81.05
2024-05-09T08:34:52.307Z,79.16
2024-05-09T08:49:52.081Z,75.67
2024-05-09T09:04:52.098Z,71.62
2024-05-09T09:20:09.015Z,69.01
2024-05-09T09:34:52.541Z,65.21
2024-05-09T09:49:51.352Z,69.02
2024-05-09T10:04:51.319Z,63.36
2024-05-09T10:19:51.236Z,62.32
2024-05-09T10:34:50.730Z,64.14
2024-05-09T10:49:50.622Z,62.12
2024-05-09T11:04:50.441Z,59.05
2024-05-09T11:19:50.166Z,65.61
2024-05-09T11:34:49.954Z,65.39
2024-05-09T11:49:50.147Z,61.42
2024-05-09T12:04:49.680Z,59.90
2024-05-09T12:19:49.484Z,56.91
2024-05-09T12:34:49.178Z,53.09
2024-05-09T12:49:49.069Z,51.99
